This is the latest recevied weather packets stored in our database for station/object KA5ZCI. If no packets are shown the sender has not sent any weather packets the latest 10 day(s).
| Time | Temp. | Humidity | Pressure | Rain* | Wind** | Luminosity | Snow |
|---|---|---|---|---|---|---|---|
| 1777915204 | 25° C | 37% | 1017.7 hPa | 0 mm | - | 0 W/m² | - |
| 1777914004 | 25° C | 40% | 1017.8 hPa | 0 mm | - | 0 W/m² | - |
| 1777911304 | 25° C | 42% | 1018.4 hPa | 0 mm | - | 0 W/m² | - |
| 1777909504 | 23.89° C | 40% | 1018.5 hPa | 0 mm | - | 0 W/m² | - |
| 1777908904 | 23.89° C | 41% | 1018.6 hPa | 0 mm | - | 0 W/m² | - |
| 1777908304 | 23.89° C | 49% | 1018.7 hPa | 0 mm | - | 0 W/m² | - |
| 1777906504 | 22.78° C | 52% | 1018.6 hPa | 0 mm | - | 0 W/m² | - |
| 1777905904 | 22.22° C | 55% | 1018.8 hPa | 0 mm | - | 0 W/m² | - |
| 1777903204 | 20.56° C | 72% | 1018.8 hPa | 0 mm | - | 0 W/m² | - |
| 1777901103 | 18.89° C | 82% | 1018.8 hPa | 0 mm | - | 0 W/m² | - |
| 1777900203 | 17.78° C | 87% | 1018.9 hPa | 0 mm | - | 0 W/m² | - |
| 1777898104 | 14.44° C | 93% | 1018.6 hPa | 0 mm | - | 0 W/m² | - |
| 1777897804 | 13.89° C | 94% | 1018.5 hPa | 0 mm | - | 0 W/m² | - |
| 1777896903 | 13.33° C | 94% | 1018.3 hPa | 0 mm | - | 0 W/m² | - |
| 1777894503 | 11.11° C | 96% | 1018 hPa | 0 mm | - | 0 W/m² | - |
| 1777893304 | 10.56° C | 96% | 1017.9 hPa | 0 mm | - | 0 W/m² | - |
| 1777892704 | 11.11° C | 96% | 1017.9 hPa | 0 mm | - | 0 W/m² | - |
| 1777892404 | 11.11° C | 96% | 1017.9 hPa | 0 mm | - | 0 W/m² | - |
| 1777890304 | 11.11° C | 96% | 1017.9 hPa | 0 mm | - | 0 W/m² | - |
| 1777889703 | 11.11° C | 96% | 1017.9 hPa | 0 mm | - | 0 W/m² | - |
| 1777886103 | 11.67° C | 96% | 1018.1 hPa | 0 mm | - | 0 W/m² | - |
| 1777885804 | 11.67° C | 96% | 1018.1 hPa | 0 mm | - | 0 W/m² | - |
| 1777885504 | 11.67° C | 95% | 1018.1 hPa | 0 mm | - | 0 W/m² | - |
| 1777884003 | 12.22° C | 96% | 1017.9 hPa | 0 mm | - | 0 W/m² | - |
| 1777881904 | 12.22° C | 95% | 1017.8 hPa | 0 mm | - | 0 W/m² | - |
* Rain latest hour (hover to see other rain measurements)
** Current wind speed in m/s (hover to see current wind gust speed)